Details From LIBD - Bari Palese Macchie
To LSME - Emmen
Flight Number -
Tags Generated
Created
Modified
Stats Distance 510 nm / 945 km
Max Altitude 0 ft / 0 m
Waypoints 4
Social Downloads 8
Likes 0
Share VATSIM

Download

Looking for another format? Having issues loading an existing format? Contact us
Advertisement - Login to hide

Notes

Generated

Route

LIBD LANLI URIGI LSME

ID Type Via Altitude Latitude Longitude Leg Dist Tot Dist Heading (true) Name
O LIBD APT - 0 ft / 0 m 41.13463˚ 16.74687˚ - 0 nm - -
LANLI FIX - 0 ft / 0 m 43.95722˚ 13.18056˚ 231 nm 231 nm 318° / 316° -
URIGI FIX - 0 ft / 0 m 47.05889˚ 8.41361˚ 273 nm 505 nm 315° / 311° -
O LSME APT - 0 ft / 0 m 47.08345˚ 8.29507˚ 5 nm 510 nm 287° / 287° -

Altitude Profile

Advertisement - Login to hide

Weather


0- 5 10 15 20 25 30 35+ Temperature / ° C

Clouds and Precipitation
Forecast for 2018-05-20 12:00 UTC. Updated an hour ago

Ground ~20,000 ft ~40,000 ft Winds

LIBD

Details ICAO LIBD (BRI)
Name Bari Palese Macchie
Region Italy
Timezone Europe/Rome (UTC+2.0)
Stats Elevation 177 ft / 54 m (AMSL)
Location 41.137865° 16.758318°
Runways 1
Magnetic Variation 3.781° E

METAR

LIBD 200950Z 02006KT 330V070 CAVOK 23/10 Q1014

Decode

TAF

TAF LIBD 200500Z 2006/2106 VRB05KT CAVOK BECMG 2008/2010 04012KT BECMG 2016/2018 VRB05KT

Decode

Departure Runways

ID Width Length Bearing (true) Bearing (mag) Surface Threshold Offset Overrun Length
07 148 ft / 45 m 9,262 ft / 2,823 m 69.39° 65.61° Asphalt 1,257 ft / 383 m 0 ft / 0 m
25 148 ft / 45 m 9,262 ft / 2,823 m 249.42° 245.64° Asphalt 0 ft / 0 m 194 ft / 59 m

LSME

Details ICAO LSME
Name Emmen
Region Switzerland
Timezone Europe/Zurich (UTC+2.0)
Stats Elevation 1,400 ft / 427 m (AMSL)
Location 47.092369° 8.305118°
Runways 1
Magnetic Variation 2.336° E

METAR

LSME 200950Z AUTO VRB01KT 9999NDV SCT020 OVC029 14/11 Q1019 RMK

Decode

TAF

TAF LSME 200925Z 2010/2116 VRB03KT 9999 SCT018 BKN023 PROB40 TEMPO 2012/2017 SHRA SCT030TCU PROB30 TEMPO 2013/2016 TSRA FEW050CB PROB40 TEMPO 2112/2116 SHRA SCT030TCU PROB30 TEMPO 2113/2116 TSRA FEW050CB

Decode

Destination Runways

ID Width Length Bearing (true) Bearing (mag) Surface Threshold Offset Overrun Length
04 130 ft / 40 m 8,202 ft / 2,500 m 37.49° 35.15° Asphalt 363 ft / 111 m 810 ft / 247 m
22 130 ft / 40 m 8,202 ft / 2,500 m 217.51° 215.17° Asphalt 596 ft / 182 m 747 ft / 228 m

Approach Navaids

Runway Type Ident Frequency Range Bearing (true) Bearing (mag) Slope Elevation
22 Localiser IEM 110.35 MHz 18 nm / 33 km 217.57° 215.23° - 1,400 ft / 427 m (AMSL)
22 Glidescope IEM 110.35 MHz 10 nm / 19 km 217.50° 215.16° 4.00° 1,406 ft / 429 m (AMSL)
22 DME IEM 110.35 MHz 18 nm / 33 km - - - 1,406 ft / 429 m (AMSL)